createdAt,value
2022-08-05T00:00:20.015Z,5.78
2022-08-05T00:02:51.098Z,6.03
2022-08-05T00:08:19.779Z,6.00
2022-08-05T00:11:00.990Z,6.57
2022-08-05T00:13:39.620Z,6.18
2022-08-05T00:16:13.920Z,5.93
2022-08-05T00:18:45.905Z,6.07
2022-08-05T00:21:16.904Z,6.05
2022-08-05T00:24:06.134Z,5.75
2022-08-05T00:26:33.568Z,6.50
2022-08-05T00:29:00.321Z,6.18
2022-08-05T00:31:53.862Z,6.28
2022-08-05T00:34:53.628Z,6.10
2022-08-05T00:37:10.309Z,5.60
2022-08-05T00:39:44.481Z,5.35
2022-08-05T00:42:42.313Z,5.85
2022-08-05T00:45:15.149Z,5.65
2022-08-05T00:47:56.801Z,5.70
2022-08-05T00:50:25.295Z,5.93
2022-08-05T00:52:55.249Z,5.20
2022-08-05T00:55:23.244Z,5.38
2022-08-05T00:58:01.393Z,5.63
2022-08-05T01:00:31.823Z,5.15
2022-08-05T01:03:01.027Z,4.97
2022-08-05T01:05:28.102Z,4.93
2022-08-05T01:08:41.838Z,5.13
2022-08-05T01:10:56.542Z,5.25
2022-08-05T01:13:27.543Z,4.60
2022-08-05T01:16:26.399Z,4.80
2022-08-05T01:19:06.108Z,5.07
2022-08-05T01:21:51.349Z,4.72
2022-08-05T01:25:02.980Z,4.15
2022-08-05T01:28:20.740Z,4.25
2022-08-05T01:31:00.186Z,4.43
2022-08-05T01:33:41.439Z,4.40
2022-08-05T01:36:16.051Z,4.43
2022-08-05T01:38:48.517Z,4.05
2022-08-05T01:41:22.821Z,4.40
2022-08-05T01:43:54.783Z,5.28
2022-08-05T01:46:42.579Z,4.70
2022-08-05T01:49:23.604Z,4.68
2022-08-05T01:51:58.973Z,4.82
2022-08-05T01:54:45.751Z,4.70
2022-08-05T01:58:10.213Z,4.55
2022-08-05T02:00:12.081Z,4.30
2022-08-05T02:02:51.130Z,4.85
2022-08-05T02:05:28.895Z,4.35
2022-08-05T02:08:01.159Z,4.63
2022-08-05T02:10:36.481Z,4.68
2022-08-05T02:13:16.797Z,4.47
2022-08-05T02:15:51.852Z,4.30
2022-08-05T02:18:31.992Z,4.35
2022-08-05T02:21:43.346Z,4.28
2022-08-05T02:24:23.388Z,4.70
2022-08-05T02:26:59.146Z,4.63
2022-08-05T02:29:59.486Z,4.53
2022-08-05T02:32:24.276Z,4.50
2022-08-05T02:35:13.734Z,4.80
2022-08-05T02:37:47.814Z,5.07
2022-08-05T02:40:24.349Z,4.50
2022-08-05T02:42:55.001Z,4.72
2022-08-05T02:45:24.524Z,4.93
2022-08-05T02:48:06.641Z,4.75
2022-08-05T02:50:45.943Z,5.35
2022-08-05T02:53:18.713Z,5.85
2022-08-05T02:55:59.562Z,5.13
2022-08-05T02:58:30.035Z,5.35
2022-08-05T03:01:02.476Z,5.00
2022-08-05T03:03:33.788Z,5.40
2022-08-05T03:06:56.561Z,4.93
2022-08-05T03:08:53.139Z,5.50
2022-08-05T03:11:53.288Z,5.43
2022-08-05T03:14:13.272Z,4.80
2022-08-05T03:16:41.186Z,4.60
2022-08-05T03:19:17.434Z,5.30
2022-08-05T03:21:55.513Z,5.10
2022-08-05T03:24:26.871Z,5.18
2022-08-05T03:26:59.955Z,4.82
2022-08-05T03:29:44.439Z,5.20
2022-08-05T03:32:15.701Z,5.43
2022-08-05T03:34:51.237Z,4.68
2022-08-05T03:37:20.962Z,5.20
2022-08-05T03:40:01.626Z,5.43
2022-08-05T03:42:32.937Z,5.28
2022-08-05T03:45:22.709Z,5.07
2022-08-05T03:47:51.473Z,5.38
2022-08-05T03:50:20.418Z,5.25
2022-08-05T03:55:51.303Z,5.10
2022-08-05T03:56:27.944Z,5.40
2022-08-05T03:59:05.837Z,5.35
2022-08-05T04:01:37.995Z,5.47
2022-08-05T04:04:10.590Z,5.70
2022-08-05T04:06:38.572Z,5.28
2022-08-05T04:09:26.058Z,5.38
2022-08-05T04:11:56.774Z,5.35
2022-08-05T04:14:30.075Z,5.70
2022-08-05T04:17:00.216Z,5.22
2022-08-05T04:19:28.929Z,5.35
2022-08-05T04:22:09.430Z,5.85
2022-08-05T04:24:52.567Z,5.55
2022-08-05T04:27:41.516Z,5.38
2022-08-05T04:30:09.896Z,5.15
2022-08-05T04:32:37.756Z,5.70
2022-08-05T04:35:07.304Z,5.32
2022-08-05T04:38:01.668Z,5.18
2022-08-05T04:40:44.486Z,5.38
2022-08-05T04:43:17.754Z,5.40
2022-08-05T04:45:54.891Z,4.90
2022-08-05T04:48:28.016Z,4.97
2022-08-05T04:51:02.654Z,5.32
2022-08-05T04:53:38.584Z,5.53
2022-08-05T04:56:33.341Z,5.43
2022-08-05T04:58:55.533Z,5.07
2022-08-05T05:02:04.004Z,5.20
2022-08-05T05:04:10.172Z,5.55
2022-08-05T05:06:40.376Z,4.78
2022-08-05T05:09:17.650Z,6.07
2022-08-05T05:11:54.392Z,6.18
2022-08-05T05:14:27.720Z,5.80
2022-08-05T05:17:02.123Z,6.03
2022-08-05T05:19:36.399Z,5.05
2022-08-05T05:22:23.382Z,5.32
2022-08-05T05:24:58.849Z,5.47
2022-08-05T05:27:44.213Z,5.05
2022-08-05T05:30:31.542Z,4.60
2022-08-05T05:33:16.169Z,5.32
2022-08-05T05:35:48.209Z,5.75
2022-08-05T05:38:22.607Z,4.45
2022-08-05T05:40:56.144Z,5.10
2022-08-05T05:43:54.267Z,5.18
2022-08-05T05:46:17.788Z,4.90
2022-08-05T05:48:48.151Z,5.10
2022-08-05T05:51:49.622Z,5.38
2022-08-05T05:54:17.590Z,5.40
2022-08-05T05:56:47.403Z,4.80
2022-08-05T05:59:14.219Z,5.72
2022-08-05T06:01:57.922Z,6.10
2022-08-05T06:04:25.296Z,5.40
2022-08-05T06:06:52.150Z,5.57
2022-08-05T06:09:25.844Z,5.65
2022-08-05T06:12:06.341Z,4.93
2022-08-05T06:14:36.626Z,6.20
2022-08-05T06:17:21.679Z,6.15
2022-08-05T06:19:57.174Z,5.75
2022-08-05T06:22:35.314Z,6.45
2022-08-05T06:25:59.741Z,5.60
2022-08-05T06:28:12.584Z,5.70
2022-08-05T06:30:38.588Z,5.60
2022-08-05T06:33:05.399Z,5.30
2022-08-05T06:36:04.175Z,6.13
2022-08-05T06:38:36.715Z,5.78
2022-08-05T06:41:07.872Z,5.13
2022-08-05T06:43:58.551Z,4.88
2022-08-05T06:46:23.989Z,5.32
2022-08-05T06:48:59.160Z,5.40
2022-08-05T06:51:29.937Z,5.35
2022-08-05T06:54:03.966Z,4.97
2022-08-05T06:56:34.183Z,5.00
2022-08-05T06:59:09.360Z,4.70
2022-08-05T07:01:36.882Z,5.43
2022-08-05T07:04:03.892Z,5.30
2022-08-05T07:06:31.884Z,5.95
2022-08-05T07:09:04.264Z,5.05
2022-08-05T07:11:36.878Z,4.82
2022-08-05T07:14:29.243Z,4.90
2022-08-05T07:17:59.255Z,4.80
2022-08-05T07:25:54.504Z,5.68
2022-08-05T07:28:01.437Z,4.57
2022-08-05T07:30:38.525Z,4.47
2022-08-05T07:33:16.242Z,4.70
2022-08-05T07:36:04.134Z,5.60
2022-08-05T07:38:43.280Z,4.57
2022-08-05T07:42:13.039Z,5.13
2022-08-05T07:44:14.410Z,3.92
2022-08-05T07:46:49.573Z,3.60
2022-08-05T07:49:18.203Z,4.05
2022-08-05T07:51:54.840Z,3.80
2022-08-05T07:54:30.582Z,3.40
2022-08-05T07:57:13.977Z,2.95
2022-08-05T07:59:46.799Z,2.72
2022-08-05T08:02:17.586Z,2.75
2022-08-05T08:04:47.393Z,2.63
2022-08-05T08:07:15.211Z,2.80
2022-08-05T08:09:42.938Z,2.60
2022-08-05T08:12:29.671Z,2.78
2022-08-05T08:14:57.714Z,2.08
2022-08-05T08:17:30.289Z,2.28
2022-08-05T08:20:42.795Z,2.58
2022-08-05T08:22:44.385Z,2.10
2022-08-05T08:25:15.853Z,2.28
2022-08-05T08:27:47.667Z,1.90
2022-08-05T08:30:30.161Z,1.90
2022-08-05T08:33:08.388Z,2.10
2022-08-05T08:35:41.408Z,2.03
2022-08-05T08:38:19.088Z,2.60
2022-08-05T08:41:09.898Z,2.00
2022-08-05T08:45:21.057Z,1.98
2022-08-05T08:46:29.179Z,2.38
2022-08-05T08:49:07.841Z,2.30
2022-08-05T08:52:03.854Z,2.42
2022-08-05T08:54:36.281Z,2.30
2022-08-05T08:57:11.369Z,2.47
2022-08-05T08:59:41.752Z,2.38
2022-08-05T09:02:19.181Z,2.70
2022-08-05T09:04:58.224Z,2.58
2022-08-05T09:07:39.968Z,2.50
2022-08-05T09:10:27.123Z,2.35
2022-08-05T09:13:04.730Z,2.55
2022-08-05T09:15:32.358Z,2.40
2022-08-05T09:18:08.710Z,2.53
2022-08-05T09:20:37.622Z,2.75
2022-08-05T09:23:19.819Z,2.17
2022-08-05T09:26:02.278Z,2.60
2022-08-05T09:28:34.578Z,2.30
2022-08-05T09:32:38.569Z,2.00
2022-08-05T09:34:11.388Z,2.00
2022-08-05T09:36:54.637Z,2.13
2022-08-05T09:39:39.137Z,2.20
2022-08-05T09:42:20.193Z,2.22
2022-08-05T09:44:56.521Z,1.98
2022-08-05T09:47:48.432Z,1.90
2022-08-05T09:50:18.123Z,1.67
2022-08-05T09:53:01.583Z,1.70
2022-08-05T09:55:57.426Z,1.73
2022-08-05T09:58:24.266Z,1.80
2022-08-05T10:01:14.585Z,2.20
2022-08-05T10:04:03.218Z,1.70
2022-08-05T10:06:32.402Z,1.40
2022-08-05T10:09:27.361Z,1.50
2022-08-05T10:15:16.924Z,2.88
2022-08-05T10:18:01.687Z,6.57
2022-08-05T10:22:58.452Z,1.80
2022-08-05T10:25:25.510Z,5.95
2022-08-05T10:28:09.555Z,1.42
2022-08-05T10:32:48.094Z,1.67
2022-08-05T10:33:34.187Z,1.40
2022-08-05T10:36:05.067Z,1.00
2022-08-05T10:38:35.721Z,1.15
2022-08-05T10:41:23.484Z,0.95
2022-08-05T10:44:06.063Z,1.13
2022-08-05T10:46:43.749Z,0.70
2022-08-05T10:49:16.565Z,0.70
2022-08-05T10:51:59.775Z,0.93
2022-08-05T10:55:03.995Z,1.20
2022-08-05T10:57:33.653Z,1.00
2022-08-05T11:00:20.532Z,1.00
2022-08-05T11:03:25.313Z,1.15
2022-08-05T11:06:15.381Z,0.88
2022-08-05T11:09:17.971Z,1.60
2022-08-05T11:11:53.172Z,1.10
2022-08-05T11:17:58.985Z,0.73
2022-08-05T11:20:39.224Z,0.90
2022-08-05T11:23:33.158Z,1.05
2022-08-05T11:26:28.484Z,0.90
2022-08-05T11:28:56.760Z,1.00
2022-08-05T11:31:57.537Z,1.10
2022-08-05T11:34:50.858Z,0.95
2022-08-05T11:38:29.747Z,1.20
2022-08-05T11:41:01.345Z,1.10
2022-08-05T11:44:06.418Z,1.00
2022-08-05T11:47:10.128Z,1.10
2022-08-05T11:51:57.344Z,0.90
2022-08-05T11:54:34.393Z,1.00
2022-08-05T11:57:08.000Z,0.98
2022-08-05T11:59:49.394Z,0.88
2022-08-05T12:02:24.475Z,0.80
2022-08-05T12:05:07.494Z,0.90
2022-08-05T12:08:07.429Z,0.80
2022-08-05T12:10:45.816Z,0.88
2022-08-05T12:13:28.009Z,0.90
2022-08-05T12:16:14.959Z,0.90
2022-08-05T12:18:52.299Z,0.70
2022-08-05T12:21:26.875Z,0.85
2022-08-05T12:24:10.765Z,0.93
2022-08-05T12:26:44.112Z,0.95
2022-08-05T12:29:25.724Z,0.90
2022-08-05T12:31:56.147Z,0.90
2022-08-05T12:34:36.897Z,0.80
2022-08-05T12:37:17.427Z,1.23
2022-08-05T12:39:52.211Z,1.00
2022-08-05T12:42:25.288Z,1.17
2022-08-05T12:44:52.345Z,0.90
2022-08-05T12:47:31.941Z,0.90
2022-08-05T12:50:03.112Z,0.82
2022-08-05T12:52:39.718Z,0.80
2022-08-05T12:55:35.449Z,1.00
2022-08-05T12:58:51.068Z,1.00
2022-08-05T13:02:00.420Z,0.75
2022-08-05T13:03:42.902Z,2.13
2022-08-05T13:06:17.633Z,1.83
2022-08-05T13:08:51.713Z,0.70
2022-08-05T13:12:01.065Z,1.17
2022-08-05T13:14:36.555Z,0.82
2022-08-05T13:17:09.224Z,1.65
2022-08-05T13:19:52.003Z,0.80
2022-08-05T13:22:29.490Z,0.65
2022-08-05T13:25:05.175Z,0.73
2022-08-05T13:27:39.490Z,0.88
2022-08-05T13:30:34.254Z,10.23
2022-08-05T13:33:01.446Z,0.90
2022-08-05T13:35:42.820Z,1.00
2022-08-05T13:38:20.535Z,0.90
2022-08-05T13:40:59.917Z,0.73
2022-08-05T13:43:45.652Z,0.70
2022-08-05T13:46:14.429Z,0.90
2022-08-05T13:48:57.635Z,0.77
2022-08-05T13:51:36.679Z,0.60
2022-08-05T13:54:12.859Z,0.90
2022-08-05T13:56:51.547Z,0.70
2022-08-05T13:59:24.522Z,0.80
2022-08-05T14:01:56.918Z,0.90
2022-08-05T14:04:51.400Z,1.00
2022-08-05T14:08:00.907Z,0.80
2022-08-05T14:10:30.679Z,0.80
2022-08-05T14:12:59.383Z,0.82
2022-08-05T14:16:08.239Z,0.80
2022-08-05T14:18:18.214Z,0.70
2022-08-05T14:20:54.429Z,1.10
2022-08-05T14:23:25.660Z,0.80
2022-08-05T14:25:57.930Z,0.60
2022-08-05T14:28:29.628Z,0.82
2022-08-05T14:31:01.352Z,0.63
2022-08-05T14:33:32.610Z,0.80
2022-08-05T14:36:21.531Z,0.80
2022-08-05T14:38:50.252Z,0.80
2022-08-05T14:41:18.723Z,0.82
2022-08-05T14:44:02.318Z,0.95
2022-08-05T14:46:35.093Z,0.90
2022-08-05T14:49:07.207Z,0.82
2022-08-05T14:51:37.700Z,0.85
2022-08-05T14:54:28.681Z,0.90
2022-08-05T14:56:55.746Z,0.85
2022-08-05T14:59:23.438Z,0.85
2022-08-05T15:01:50.483Z,0.90
2022-08-05T15:04:20.747Z,0.75
2022-08-05T15:06:51.426Z,0.87
2022-08-05T15:09:52.405Z,0.80
2022-08-05T15:12:09.073Z,0.80
2022-08-05T15:14:48.322Z,0.80
2022-08-05T15:17:46.124Z,0.77
2022-08-05T15:20:06.221Z,0.77
2022-08-05T15:22:37.046Z,0.90
2022-08-05T15:25:11.612Z,0.73
2022-08-05T15:27:38.829Z,0.80
2022-08-05T15:30:10.993Z,0.80
2022-08-05T15:32:41.177Z,0.73
2022-08-05T15:35:10.629Z,0.77
2022-08-05T15:38:33.779Z,0.90
2022-08-05T15:40:58.490Z,0.80
2022-08-05T15:43:20.293Z,0.90
2022-08-05T15:46:00.338Z,0.90
2022-08-05T15:48:30.065Z,1.15
2022-08-05T15:50:58.296Z,0.90
2022-08-05T15:53:37.880Z,0.85
2022-08-05T15:56:17.131Z,0.73
2022-08-05T15:58:44.634Z,0.63
2022-08-05T16:01:16.216Z,0.73
2022-08-05T16:03:50.814Z,0.90
2022-08-05T16:06:19.617Z,0.98
2022-08-05T16:08:51.195Z,0.80
2022-08-05T16:11:43.202Z,0.90
2022-08-05T16:14:09.374Z,0.60
2022-08-05T16:16:36.304Z,0.70
2022-08-05T16:19:04.334Z,0.75
2022-08-05T16:21:59.418Z,0.73
2022-08-05T16:24:35.826Z,0.60
2022-08-05T16:27:07.353Z,0.80
2022-08-05T16:29:37.350Z,0.80
2022-08-05T16:32:06.577Z,0.90
2022-08-05T16:34:36.743Z,0.68
2022-08-05T16:38:02.549Z,0.70
2022-08-05T16:40:04.299Z,0.70
2022-08-05T16:42:34.601Z,0.77
2022-08-05T16:45:01.864Z,0.90
2022-08-05T16:47:35.961Z,0.73
2022-08-05T16:50:10.235Z,0.80
2022-08-05T16:52:37.393Z,1.02
2022-08-05T16:55:05.022Z,0.90
2022-08-05T16:57:49.493Z,0.98
2022-08-05T17:00:34.661Z,0.93
2022-08-05T17:03:13.312Z,1.00
2022-08-05T17:05:50.221Z,0.77
2022-08-05T17:08:36.397Z,1.00
2022-08-05T17:11:16.506Z,1.00
2022-08-05T17:13:45.549Z,0.95
2022-08-05T17:16:29.893Z,0.93
2022-08-05T17:19:01.190Z,0.80
2022-08-05T17:21:36.010Z,1.00
2022-08-05T17:24:07.663Z,1.10
2022-08-05T17:26:45.408Z,1.30
2022-08-05T17:29:14.722Z,1.23
2022-08-05T17:31:57.127Z,1.15
2022-08-05T17:34:30.238Z,1.33
2022-08-05T17:36:59.944Z,1.35
2022-08-05T17:39:34.061Z,1.00
2022-08-05T17:42:17.920Z,1.25
2022-08-05T17:44:50.066Z,1.23
2022-08-05T17:47:21.787Z,1.20
2022-08-05T17:49:59.670Z,1.02
2022-08-05T17:52:30.294Z,1.00
2022-08-05T17:54:58.010Z,1.20
2022-08-05T17:57:24.848Z,0.90
2022-08-05T18:00:05.583Z,0.93
2022-08-05T18:02:34.279Z,1.10
2022-08-05T18:05:06.476Z,1.27
2022-08-05T18:07:41.203Z,0.90
2022-08-05T18:10:20.630Z,1.13
2022-08-05T18:12:51.537Z,1.10
2022-08-05T18:15:18.511Z,1.20
2022-08-05T18:18:01.698Z,1.52
2022-08-05T18:20:32.401Z,1.73
2022-08-05T18:23:11.162Z,1.45
2022-08-05T18:25:45.217Z,1.40
2022-08-05T18:28:16.412Z,1.10
2022-08-05T18:30:51.249Z,1.33
2022-08-05T18:33:24.148Z,1.92
2022-08-05T18:36:04.962Z,1.60
2022-08-05T18:38:37.321Z,1.17
2022-08-05T18:41:55.605Z,1.20
2022-08-05T18:43:54.332Z,1.75
2022-08-05T18:46:21.127Z,1.40
2022-08-05T18:48:52.074Z,1.05
2022-08-05T18:52:04.322Z,1.50
2022-08-05T18:54:30.996Z,1.30
2022-08-05T18:57:02.433Z,0.93
2022-08-05T18:59:44.173Z,1.30
2022-08-05T19:02:26.737Z,1.50
2022-08-05T19:06:05.250Z,1.02
2022-08-05T19:07:56.161Z,1.30
2022-08-05T19:10:28.434Z,1.40
2022-08-05T19:12:58.332Z,1.27
2022-08-05T19:15:58.659Z,1.67
2022-08-05T19:18:20.873Z,1.40
2022-08-05T19:20:52.333Z,1.30
2022-08-05T19:24:04.325Z,1.50
2022-08-05T19:26:08.526Z,1.25
2022-08-05T19:28:43.106Z,1.63
2022-08-05T19:31:13.217Z,1.90
2022-08-05T19:33:48.435Z,1.60
2022-08-05T19:36:27.155Z,1.60
2022-08-05T19:39:01.054Z,2.15
2022-08-05T19:42:05.415Z,1.90
2022-08-05T19:44:19.168Z,2.00
2022-08-05T19:46:46.452Z,1.70
2022-08-05T19:49:16.990Z,2.20
2022-08-05T19:52:08.412Z,1.85
2022-08-05T19:54:34.248Z,2.03
2022-08-05T19:57:09.070Z,2.20
2022-08-05T20:00:00.336Z,2.22
2022-08-05T20:02:31.295Z,1.80
2022-08-05T20:04:59.636Z,1.42
2022-08-05T20:07:46.988Z,1.90
2022-08-05T20:10:17.307Z,1.77
2022-08-05T20:12:49.053Z,1.33
2022-08-05T20:15:48.815Z,1.83
2022-08-05T20:18:10.892Z,1.90
2022-08-05T20:20:55.872Z,1.67
2022-08-05T20:23:39.293Z,1.77
2022-08-05T20:26:16.625Z,2.03
2022-08-05T20:28:50.660Z,2.05
2022-08-05T20:31:21.540Z,2.00
2022-08-05T20:33:50.214Z,1.58
2022-08-05T20:36:18.350Z,1.83
2022-08-05T20:38:54.380Z,1.85
2022-08-05T20:41:44.453Z,2.00
2022-08-05T20:44:29.817Z,1.70
2022-08-05T20:47:00.358Z,1.83
2022-08-05T20:49:27.895Z,1.92
2022-08-05T20:51:57.395Z,1.88
2022-08-05T20:54:43.238Z,1.60
2022-08-05T20:57:14.767Z,2.08
2022-08-05T21:00:20.368Z,2.10
2022-08-05T21:02:43.714Z,2.10
2022-08-05T21:05:18.756Z,1.80
2022-08-05T21:07:51.912Z,2.08
2022-08-05T21:10:19.750Z,2.10
2022-08-05T21:12:55.551Z,2.13
2022-08-05T21:15:34.061Z,2.13
2022-08-05T21:18:01.047Z,1.88
2022-08-05T21:20:32.762Z,2.42
2022-08-05T21:23:00.707Z,2.28
2022-08-05T21:25:33.807Z,1.75
2022-08-05T21:28:03.244Z,2.33
2022-08-05T21:30:31.440Z,2.00
2022-08-05T21:32:58.319Z,2.35
2022-08-05T21:35:29.802Z,2.25
2022-08-05T21:38:10.426Z,1.95
2022-08-05T21:40:39.346Z,2.45
2022-08-05T21:43:08.498Z,2.65
2022-08-05T21:45:56.694Z,2.40
2022-08-05T21:48:24.741Z,2.17
2022-08-05T21:50:53.024Z,1.98
2022-08-05T21:53:21.799Z,2.22
2022-08-05T21:56:01.457Z,2.40
2022-08-05T21:58:32.490Z,2.08
2022-08-05T22:00:59.875Z,2.25
2022-08-05T22:03:52.852Z,2.40
2022-08-05T22:06:22.981Z,2.28
2022-08-05T22:09:01.936Z,2.38
2022-08-05T22:11:41.393Z,2.42
2022-08-05T22:14:35.868Z,2.72
2022-08-05T22:17:02.983Z,2.83
2022-08-05T22:20:03.179Z,3.42
2022-08-05T22:22:20.202Z,2.75
2022-08-05T22:25:20.968Z,3.00
2022-08-05T22:28:08.438Z,3.05
2022-08-05T22:30:44.264Z,3.03
2022-08-05T22:33:58.514Z,3.42
2022-08-05T22:36:09.714Z,3.38
2022-08-05T22:38:37.105Z,3.38
2022-08-05T22:41:09.577Z,3.67
2022-08-05T22:43:37.966Z,3.08
2022-08-05T22:46:13.156Z,3.58
2022-08-05T22:48:41.963Z,3.03
2022-08-05T22:51:15.955Z,3.03
2022-08-05T22:53:51.085Z,3.30
2022-08-05T22:56:30.370Z,3.25
2022-08-05T22:59:02.868Z,2.95
2022-08-05T23:02:04.237Z,3.15
2022-08-05T23:04:18.397Z,3.15
2022-08-05T23:06:46.164Z,3.03
2022-08-05T23:09:53.216Z,2.85
2022-08-05T23:12:02.243Z,2.92
2022-08-05T23:14:32.099Z,2.97
2022-08-05T23:17:24.511Z,3.20
2022-08-05T23:20:02.439Z,3.10
2022-08-05T23:22:29.680Z,3.00
2022-08-05T23:24:57.692Z,4.05
2022-08-05T23:27:31.277Z,3.50
2022-08-05T23:30:00.815Z,4.22
2022-08-05T23:32:28.279Z,3.95
2022-08-05T23:34:55.883Z,3.75
2022-08-05T23:37:22.949Z,4.20
2022-08-05T23:39:54.843Z,4.00
2022-08-05T23:42:23.442Z,4.10
2022-08-05T23:44:56.545Z,3.85
2022-08-05T23:47:24.947Z,4.22
2022-08-05T23:49:55.625Z,4.07
2022-08-05T23:52:27.568Z,4.38
2022-08-05T23:54:57.311Z,4.75
2022-08-05T23:57:28.211Z,4.32
